createdAt,value
2023-04-13T00:09:56.049Z,8.98
2023-04-13T00:21:56.506Z,8.78
2023-04-13T00:33:57.265Z,8.40
2023-04-13T00:45:57.460Z,8.75
2023-04-13T00:57:58.128Z,8.46
2023-04-13T01:09:58.372Z,8.75
2023-04-13T01:21:58.795Z,8.61
2023-04-13T01:33:59.467Z,8.36
2023-04-13T01:45:59.696Z,8.59
2023-04-13T01:58:00.142Z,8.32
2023-04-13T02:10:00.591Z,8.27
2023-04-13T02:22:01.062Z,8.56
2023-04-13T02:34:01.581Z,8.54
2023-04-13T02:46:02.055Z,8.40
2023-04-13T02:58:02.465Z,8.09
2023-04-13T03:10:02.860Z,8.32
2023-04-13T03:22:03.391Z,8.05
2023-04-13T03:34:03.761Z,7.39
2023-04-13T03:46:04.290Z,7.70
2023-04-13T03:58:04.658Z,7.37
2023-04-13T04:10:05.152Z,7.45
2023-04-13T04:22:05.637Z,7.47
2023-04-13T04:34:06.092Z,7.61
2023-04-13T04:46:06.558Z,7.60
2023-04-13T04:58:06.942Z,7.68
2023-04-13T05:10:07.396Z,7.80
2023-04-13T05:22:07.859Z,7.87
2023-04-13T05:34:08.320Z,7.72
2023-04-13T05:46:08.788Z,7.98
2023-04-13T05:58:09.192Z,8.00
2023-04-13T06:10:09.688Z,8.09
2023-04-13T06:22:10.107Z,8.18
2023-04-13T06:34:10.569Z,8.07
2023-04-13T06:46:11.048Z,8.04
2023-04-13T06:58:11.463Z,8.02
2023-04-13T07:10:11.923Z,8.11
2023-04-13T07:22:12.367Z,8.06
2023-04-13T07:34:12.808Z,8.23
2023-04-13T07:46:13.337Z,8.10
2023-04-13T07:58:13.744Z,8.21
2023-04-13T08:10:14.171Z,7.99
2023-04-13T08:22:14.633Z,8.11
2023-04-13T08:34:15.094Z,7.99
2023-04-13T08:46:15.571Z,8.08
2023-04-13T08:58:15.981Z,8.24
2023-04-13T09:10:16.461Z,8.19
2023-04-13T09:22:16.934Z,8.40
2023-04-13T09:34:17.368Z,8.85
2023-04-13T09:46:17.829Z,9.01
2023-04-13T09:58:18.258Z,8.87
2023-04-13T10:10:18.738Z,8.91
2023-04-13T10:22:19.148Z,9.76
2023-04-13T10:34:19.641Z,9.57
2023-04-13T10:46:20.102Z,8.98
2023-04-13T10:58:20.580Z,9.55
2023-04-13T11:10:21.015Z,9.01
2023-04-13T11:22:21.439Z,9.65
2023-04-13T11:34:21.903Z,10.08
2023-04-13T11:46:22.397Z,9.24
2023-04-13T11:58:22.783Z,9.57
2023-04-13T12:10:25.206Z,9.47
2023-04-13T12:22:23.966Z,9.12
2023-04-13T12:34:24.172Z,8.67
2023-04-13T12:46:24.642Z,8.62
2023-04-13T12:58:25.051Z,8.91
2023-04-13T13:10:29.696Z,9.31
2023-04-13T13:22:25.980Z,9.56
2023-04-13T13:34:26.398Z,9.03
2023-04-13T13:46:26.913Z,8.23
2023-04-13T13:58:28.090Z,8.17
2023-04-13T14:10:27.807Z,8.10
2023-04-13T14:22:28.231Z,7.98
2023-04-13T14:34:28.713Z,8.45
2023-04-13T14:46:29.147Z,8.26
2023-04-13T14:58:29.755Z,7.90
2023-04-13T15:10:30.050Z,8.30
2023-04-13T15:22:30.538Z,8.10
2023-04-13T15:34:30.963Z,8.08
2023-04-13T15:46:31.622Z,7.83
2023-04-13T15:58:31.873Z,7.40
2023-04-13T16:10:32.322Z,7.42
2023-04-13T16:22:33.288Z,7.11
2023-04-13T16:34:33.232Z,7.08
2023-04-13T16:46:33.757Z,6.76
2023-04-13T16:58:34.106Z,7.00
2023-04-13T17:10:34.553Z,6.99
2023-04-13T17:22:35.029Z,6.88
2023-04-13T17:34:35.527Z,6.40
2023-04-13T17:46:35.920Z,6.58
2023-04-13T17:58:36.375Z,6.49
2023-04-13T18:10:36.885Z,6.61
2023-04-13T18:22:37.325Z,6.50
2023-04-13T18:34:37.769Z,6.41
2023-04-13T18:46:38.248Z,6.41
2023-04-13T18:58:38.721Z,6.34
2023-04-13T19:10:39.088Z,6.13
2023-04-13T19:22:39.549Z,6.05
2023-04-13T19:34:39.970Z,6.07
2023-04-13T19:46:40.486Z,6.05
2023-04-13T19:58:40.900Z,6.00
2023-04-13T20:10:41.326Z,6.03
2023-04-13T20:22:41.819Z,5.98
2023-04-13T20:34:42.319Z,5.75
2023-04-13T20:46:42.774Z,5.65
2023-04-13T20:58:43.149Z,5.52
2023-04-13T21:10:43.619Z,5.45
2023-04-13T21:22:44.098Z,5.48
2023-04-13T21:34:44.513Z,5.41
2023-04-13T21:46:44.968Z,5.30
2023-04-13T21:58:45.441Z,5.29
2023-04-13T22:10:45.891Z,5.18
2023-04-13T22:22:46.314Z,5.20
2023-04-13T22:34:46.777Z,5.23
2023-04-13T22:46:47.273Z,5.09
2023-04-13T22:58:47.733Z,5.13
2023-04-13T23:10:48.126Z,5.05
2023-04-13T23:22:48.569Z,4.96
2023-04-13T23:34:49.032Z,5.09
2023-04-13T23:46:49.521Z,5.01
2023-04-13T23:58:58.858Z,4.91
